createdAt,value
2022-08-26T00:01:28.975Z,59.69
2022-08-26T00:04:04.180Z,59.90
2022-08-26T00:06:37.444Z,59.88
2022-08-26T00:09:10.947Z,59.75
2022-08-26T00:11:44.748Z,59.92
2022-08-26T00:14:19.918Z,59.98
2022-08-26T00:16:53.638Z,60.10
2022-08-26T00:19:28.354Z,60.21
2022-08-26T00:22:01.185Z,60.27
2022-08-26T00:24:35.412Z,60.18
2022-08-26T00:27:08.964Z,60.20
2022-08-26T00:29:43.876Z,60.24
2022-08-26T00:32:18.556Z,60.38
2022-08-26T00:34:52.069Z,60.38
2022-08-26T00:37:25.781Z,60.34
2022-08-26T00:39:59.227Z,60.40
2022-08-26T00:42:34.510Z,60.42
2022-08-26T00:45:10.227Z,60.78
2022-08-26T00:47:54.000Z,60.62
2022-08-26T00:50:31.501Z,61.12
2022-08-26T00:53:27.975Z,60.77
2022-08-26T00:56:20.771Z,60.86
2022-08-26T00:58:56.236Z,60.65
2022-08-26T01:01:30.974Z,60.39
2022-08-26T01:04:06.234Z,60.29
2022-08-26T01:06:40.176Z,60.42
2022-08-26T01:09:18.539Z,60.41
2022-08-26T01:11:55.651Z,60.39
2022-08-26T01:14:35.044Z,60.40
2022-08-26T01:17:12.300Z,60.26
2022-08-26T01:19:51.916Z,60.25
2022-08-26T01:22:35.760Z,60.40
2022-08-26T01:25:10.479Z,60.52
2022-08-26T01:27:44.029Z,61.40
2022-08-26T01:30:19.809Z,60.82
2022-08-26T01:32:53.919Z,60.59
2022-08-26T01:35:27.443Z,61.03
2022-08-26T01:38:02.665Z,60.88
2022-08-26T01:40:40.554Z,60.92
2022-08-26T01:43:22.508Z,60.72
2022-08-26T01:45:57.574Z,61.15
2022-08-26T01:48:33.526Z,60.92
2022-08-26T01:51:11.312Z,60.87
2022-08-26T01:53:46.343Z,61.07
2022-08-26T01:56:20.463Z,61.06
2022-08-26T01:59:03.308Z,60.95
2022-08-26T02:01:39.110Z,60.93
2022-08-26T02:04:42.169Z,60.99
2022-08-26T02:07:16.909Z,60.97
2022-08-26T02:09:52.717Z,60.97
2022-08-26T02:12:27.624Z,61.08
2022-08-26T02:15:05.833Z,61.10
2022-08-26T02:17:47.127Z,61.14
2022-08-26T02:20:23.246Z,61.52
2022-08-26T02:22:56.875Z,61.23
2022-08-26T02:25:45.365Z,60.91
2022-08-26T02:28:19.826Z,61.52
2022-08-26T02:30:55.516Z,61.42
2022-08-26T02:33:31.824Z,61.56
2022-08-26T02:36:06.354Z,61.30
2022-08-26T02:38:41.101Z,61.69
2022-08-26T02:41:15.386Z,61.80
2022-08-26T02:43:51.490Z,61.39
2022-08-26T02:46:29.849Z,61.63
2022-08-26T02:49:05.851Z,62.04
2022-08-26T02:51:40.927Z,62.09
2022-08-26T02:54:17.139Z,62.00
2022-08-26T02:56:51.990Z,62.04
2022-08-26T02:59:26.292Z,63.26
2022-08-26T03:02:02.281Z,63.18
2022-08-26T03:04:36.864Z,62.70
2022-08-26T03:07:12.359Z,62.55
2022-08-26T03:09:46.616Z,62.54
2022-08-26T03:12:21.144Z,62.73
2022-08-26T03:14:54.902Z,62.50
2022-08-26T03:17:29.241Z,62.37
2022-08-26T03:20:03.981Z,62.32
2022-08-26T03:22:37.974Z,62.45
2022-08-26T03:25:12.704Z,62.43
2022-08-26T03:27:47.849Z,62.44
2022-08-26T03:30:44.677Z,62.44
2022-08-26T03:33:18.241Z,62.65
2022-08-26T03:35:52.900Z,62.48
2022-08-26T03:38:26.965Z,62.25
2022-08-26T03:41:01.467Z,62.09
2022-08-26T03:43:34.844Z,62.07
2022-08-26T03:46:10.393Z,62.33
2022-08-26T03:48:45.080Z,62.43
2022-08-26T03:51:21.317Z,62.29
2022-08-26T03:53:54.809Z,62.34
2022-08-26T03:56:28.204Z,62.33
2022-08-26T03:59:04.061Z,62.24
2022-08-26T04:01:38.476Z,62.25
2022-08-26T04:04:15.545Z,62.24
2022-08-26T04:06:49.652Z,62.31
2022-08-26T04:09:24.228Z,62.22
2022-08-26T04:11:59.346Z,62.11
2022-08-26T04:14:32.994Z,62.04
2022-08-26T04:17:06.560Z,61.93
2022-08-26T04:19:41.631Z,61.77
2022-08-26T04:22:15.391Z,61.60
2022-08-26T04:24:59.214Z,61.56
2022-08-26T04:27:32.199Z,61.56
2022-08-26T04:30:06.323Z,61.39
2022-08-26T04:32:42.270Z,61.29
2022-08-26T04:35:15.789Z,61.02
2022-08-26T04:37:51.091Z,61.07
2022-08-26T04:40:25.159Z,61.06
2022-08-26T04:43:00.643Z,60.81
2022-08-26T04:45:34.056Z,60.99
2022-08-26T04:48:07.894Z,61.02
2022-08-26T04:50:44.160Z,60.98
2022-08-26T04:53:23.807Z,60.66
2022-08-26T04:55:57.848Z,60.74
2022-08-26T04:58:31.043Z,60.72
2022-08-26T05:01:05.672Z,60.64
2022-08-26T05:03:39.666Z,60.65
2022-08-26T05:06:16.486Z,60.46
2022-08-26T05:08:53.022Z,60.45
2022-08-26T05:11:26.874Z,60.34
2022-08-26T05:14:02.293Z,60.19
2022-08-26T05:16:35.486Z,60.13
2022-08-26T05:19:09.679Z,60.09
2022-08-26T05:21:44.848Z,59.97
2022-08-26T05:24:21.393Z,59.81
2022-08-26T05:26:55.118Z,59.56
2022-08-26T05:29:30.739Z,59.38
2022-08-26T05:32:05.096Z,59.03
2022-08-26T05:34:38.762Z,58.73
2022-08-26T05:37:13.608Z,58.63
2022-08-26T05:39:51.290Z,58.09
2022-08-26T05:42:27.176Z,57.35
2022-08-26T05:45:01.652Z,56.78
2022-08-26T05:47:38.161Z,56.28
2022-08-26T05:50:13.189Z,55.96
2022-08-26T05:52:47.710Z,55.86
2022-08-26T05:55:22.049Z,55.22
2022-08-26T05:57:55.791Z,54.93
2022-08-26T06:00:29.357Z,54.27
2022-08-26T06:03:03.081Z,54.03
2022-08-26T06:05:45.649Z,54.03
2022-08-26T06:08:22.127Z,53.99
2022-08-26T06:10:58.396Z,53.80
2022-08-26T06:13:32.693Z,53.52
2022-08-26T06:16:14.852Z,53.15
2022-08-26T06:18:49.936Z,53.05
2022-08-26T06:21:28.045Z,53.09
2022-08-26T06:24:27.049Z,53.05
2022-08-26T06:27:11.359Z,52.88
2022-08-26T06:29:45.276Z,52.63
2022-08-26T06:32:19.083Z,52.60
2022-08-26T06:34:54.690Z,52.08
2022-08-26T06:37:28.643Z,51.97
2022-08-26T06:40:03.658Z,51.64
2022-08-26T06:42:38.749Z,51.38
2022-08-26T06:45:13.696Z,50.87
2022-08-26T06:47:47.458Z,50.60
2022-08-26T06:50:23.086Z,50.39
2022-08-26T06:52:57.154Z,50.26
2022-08-26T06:55:34.864Z,49.83
2022-08-26T06:58:10.023Z,49.47
2022-08-26T07:00:47.341Z,49.23
2022-08-26T07:03:22.614Z,48.80
2022-08-26T07:06:02.890Z,48.68
2022-08-26T07:08:36.739Z,48.42
2022-08-26T07:11:12.035Z,48.43
2022-08-26T07:13:47.384Z,48.61
2022-08-26T07:16:22.752Z,48.03
2022-08-26T07:18:59.060Z,47.54
2022-08-26T07:21:34.591Z,47.20
2022-08-26T07:24:08.747Z,47.23
2022-08-26T07:26:44.746Z,47.01
2022-08-26T07:29:19.148Z,46.72
2022-08-26T07:31:52.681Z,46.32
2022-08-26T07:34:26.402Z,46.46
2022-08-26T07:37:00.691Z,46.16
2022-08-26T07:39:35.042Z,46.19
2022-08-26T07:42:10.305Z,45.94
2022-08-26T07:44:45.070Z,45.90
2022-08-26T07:47:24.932Z,45.70
2022-08-26T07:50:01.176Z,45.77
2022-08-26T07:52:35.257Z,45.28
2022-08-26T07:55:10.165Z,45.04
2022-08-26T07:57:43.373Z,44.97
2022-08-26T08:00:18.471Z,44.69
2022-08-26T08:02:52.576Z,44.50
2022-08-26T08:05:33.732Z,44.19
2022-08-26T08:08:26.988Z,44.02
2022-08-26T08:11:04.831Z,43.57
2022-08-26T08:13:40.202Z,43.62
2022-08-26T08:16:13.790Z,43.51
2022-08-26T08:18:47.785Z,43.30
2022-08-26T08:21:23.989Z,43.09
2022-08-26T08:23:59.396Z,43.15
2022-08-26T08:26:32.444Z,42.72
2022-08-26T08:29:06.158Z,42.42
2022-08-26T08:31:56.535Z,42.42
2022-08-26T08:34:34.322Z,41.78
2022-08-26T08:37:11.564Z,41.49
2022-08-26T08:39:45.239Z,41.46
2022-08-26T08:42:41.733Z,41.57
2022-08-26T08:45:37.041Z,41.75
2022-08-26T08:48:27.921Z,41.56
2022-08-26T08:51:29.211Z,40.97
2022-08-26T08:54:03.752Z,41.15
2022-08-26T08:56:55.880Z,41.26
2022-08-26T08:59:42.432Z,41.12
2022-08-26T09:02:18.544Z,40.80
2022-08-26T09:05:08.668Z,40.87
2022-08-26T09:08:11.191Z,40.04
2022-08-26T09:10:51.417Z,38.47
2022-08-26T09:13:27.346Z,38.69
2022-08-26T09:16:04.755Z,39.23
2022-08-26T09:18:40.442Z,38.25
2022-08-26T09:21:17.918Z,37.43
2022-08-26T09:23:56.805Z,38.27
2022-08-26T09:26:49.897Z,37.53
2022-08-26T09:29:30.842Z,38.21
2022-08-26T09:32:22.658Z,38.30
2022-08-26T09:35:06.869Z,38.39
2022-08-26T09:40:39.188Z,36.99
2022-08-26T09:43:23.185Z,36.59
2022-08-26T09:46:13.123Z,35.81
2022-08-26T09:48:46.469Z,36.34
2022-08-26T09:51:25.207Z,35.65
2022-08-26T09:54:01.322Z,34.90
2022-08-26T09:56:37.593Z,34.61
2022-08-26T09:59:13.923Z,33.88
2022-08-26T10:01:48.077Z,33.76
2022-08-26T10:04:27.439Z,33.73
2022-08-26T10:07:09.474Z,33.41
2022-08-26T10:09:46.000Z,33.79
2022-08-26T10:12:23.905Z,33.28
2022-08-26T10:15:02.508Z,33.09
2022-08-26T10:17:51.969Z,31.77
2022-08-26T10:20:38.182Z,32.49
2022-08-26T10:23:23.324Z,33.22
2022-08-26T10:26:06.964Z,31.88
2022-08-26T10:28:45.993Z,32.25
2022-08-26T10:31:38.098Z,32.44
2022-08-26T10:34:15.194Z,32.80
2022-08-26T10:37:16.216Z,32.37
2022-08-26T10:40:06.305Z,31.62
2022-08-26T10:42:53.905Z,31.60
2022-08-26T10:45:31.236Z,31.71
2022-08-26T10:48:14.882Z,31.77
2022-08-26T10:50:48.878Z,30.51
2022-08-26T10:53:56.379Z,29.75
2022-08-26T10:56:30.819Z,30.68
2022-08-26T10:59:29.403Z,30.24
2022-08-26T11:02:36.817Z,29.38
2022-08-26T11:05:23.209Z,29.26
2022-08-26T11:08:16.445Z,29.76
2022-08-26T11:11:00.073Z,29.21
2022-08-26T11:14:01.739Z,29.08
2022-08-26T11:16:43.825Z,28.85
2022-08-26T11:20:01.928Z,28.93
2022-08-26T11:22:47.469Z,28.96
2022-08-26T11:25:30.208Z,28.91
2022-08-26T11:28:06.358Z,28.53
2022-08-26T11:30:44.802Z,28.88
2022-08-26T11:33:46.733Z,28.70
2022-08-26T11:36:36.932Z,28.53
2022-08-26T11:39:24.799Z,28.82
2022-08-26T11:42:05.212Z,28.45
2022-08-26T11:44:49.095Z,28.15
2022-08-26T11:47:31.605Z,28.09
2022-08-26T11:50:26.821Z,27.96
2022-08-26T11:53:07.674Z,28.15
2022-08-26T11:55:47.302Z,28.22
2022-08-26T11:58:22.630Z,28.06
2022-08-26T12:01:11.596Z,28.74
2022-08-26T12:03:53.694Z,28.11
2022-08-26T12:06:30.506Z,27.97
2022-08-26T12:09:07.790Z,28.39
2022-08-26T12:11:42.099Z,28.46
2022-08-26T12:14:27.669Z,28.48
2022-08-26T12:17:17.187Z,28.79
2022-08-26T12:19:53.615Z,28.54
2022-08-26T12:22:39.912Z,28.79
2022-08-26T12:25:27.132Z,29.03
2022-08-26T12:28:10.436Z,28.82
2022-08-26T12:31:08.924Z,28.85
2022-08-26T12:33:43.008Z,28.95
2022-08-26T12:36:21.757Z,28.87
2022-08-26T12:38:58.313Z,28.38
2022-08-26T12:42:24.028Z,27.81
2022-08-26T12:45:04.950Z,27.88
2022-08-26T12:47:46.133Z,28.07
2022-08-26T12:50:25.874Z,27.90
2022-08-26T12:53:18.760Z,27.71
2022-08-26T12:56:04.340Z,27.83
2022-08-26T12:58:39.787Z,27.91
2022-08-26T13:01:12.551Z,27.47
2022-08-26T13:03:48.068Z,27.54
2022-08-26T13:06:24.127Z,26.90
2022-08-26T13:08:59.957Z,26.76
2022-08-26T13:11:43.261Z,26.82
2022-08-26T13:14:23.721Z,26.72
2022-08-26T13:16:56.632Z,26.71
2022-08-26T13:19:30.141Z,26.95
2022-08-26T13:22:05.729Z,27.07
2022-08-26T13:24:46.429Z,26.61
2022-08-26T13:27:23.978Z,26.22
2022-08-26T13:29:58.840Z,26.13
2022-08-26T13:32:33.602Z,26.64
2022-08-26T13:35:07.323Z,27.42
2022-08-26T13:37:40.778Z,27.54
2022-08-26T13:40:15.418Z,27.37
2022-08-26T13:42:49.981Z,27.27
2022-08-26T13:45:23.722Z,27.44
2022-08-26T13:47:56.951Z,27.22
2022-08-26T13:50:30.270Z,27.03
2022-08-26T13:53:03.620Z,27.78
2022-08-26T13:55:36.466Z,28.08
2022-08-26T13:58:10.268Z,27.41
2022-08-26T14:00:46.022Z,27.99
2022-08-26T14:03:20.782Z,28.09
2022-08-26T14:05:55.870Z,28.44
2022-08-26T14:08:30.219Z,28.52
2022-08-26T14:11:03.908Z,28.68
2022-08-26T14:13:38.162Z,28.91
2022-08-26T14:16:16.838Z,29.03
2022-08-26T14:18:51.150Z,28.99
2022-08-26T14:21:25.903Z,28.86
2022-08-26T14:24:01.023Z,28.83
2022-08-26T14:26:35.423Z,28.82
2022-08-26T14:29:10.592Z,29.00
2022-08-26T14:31:46.153Z,29.19
2022-08-26T14:34:19.719Z,29.38
2022-08-26T14:36:53.060Z,29.39
2022-08-26T14:39:26.936Z,29.47
2022-08-26T14:42:01.162Z,29.87
2022-08-26T14:44:35.785Z,29.87
2022-08-26T14:47:09.670Z,29.94
2022-08-26T14:49:42.580Z,29.92
2022-08-26T14:52:15.712Z,30.31
2022-08-26T14:54:54.889Z,30.99
2022-08-26T14:57:29.877Z,31.11
2022-08-26T15:00:02.691Z,31.21
2022-08-26T15:02:35.526Z,31.50
2022-08-26T15:05:09.176Z,31.78
2022-08-26T15:07:42.662Z,31.84
2022-08-26T15:10:18.871Z,32.21
2022-08-26T15:12:52.614Z,32.37
2022-08-26T15:15:26.544Z,32.32
2022-08-26T15:18:00.021Z,32.68
2022-08-26T15:23:12.752Z,33.08
2022-08-26T15:25:48.813Z,33.14
2022-08-26T15:28:22.644Z,33.37
2022-08-26T15:30:57.430Z,33.39
2022-08-26T15:33:31.448Z,33.35
2022-08-26T15:36:05.876Z,33.65
2022-08-26T15:38:43.904Z,33.83
2022-08-26T15:41:18.185Z,33.90
2022-08-26T15:43:52.483Z,33.87
2022-08-26T15:46:27.165Z,34.11
2022-08-26T15:49:00.229Z,34.38
2022-08-26T15:51:45.341Z,34.42
2022-08-26T15:54:23.046Z,34.66
2022-08-26T15:56:56.448Z,35.20
2022-08-26T15:59:32.282Z,35.27
2022-08-26T16:02:06.033Z,35.34
2022-08-26T16:04:39.240Z,35.74
2022-08-26T16:07:12.954Z,35.88
2022-08-26T16:09:46.234Z,35.97
2022-08-26T16:12:28.476Z,36.31
2022-08-26T16:15:01.775Z,36.50
2022-08-26T16:17:35.068Z,36.67
2022-08-26T16:20:08.741Z,37.21
2022-08-26T16:22:41.627Z,37.48
2022-08-26T16:25:14.694Z,38.12
2022-08-26T16:27:47.534Z,38.51
2022-08-26T16:30:22.270Z,38.84
2022-08-26T16:32:57.913Z,39.03
2022-08-26T16:35:31.150Z,39.00
2022-08-26T16:38:03.918Z,39.34
2022-08-26T16:40:38.179Z,39.56
2022-08-26T16:43:11.098Z,39.84
2022-08-26T16:45:50.591Z,40.35
2022-08-26T16:48:24.220Z,40.55
2022-08-26T16:50:57.624Z,40.83
2022-08-26T16:53:30.967Z,41.09
2022-08-26T16:56:05.439Z,41.18
2022-08-26T16:58:39.734Z,41.30
2022-08-26T17:01:13.290Z,41.45
2022-08-26T17:03:46.535Z,41.58
2022-08-26T17:06:20.077Z,41.61
2022-08-26T17:08:53.748Z,41.66
2022-08-26T17:11:26.814Z,41.90
2022-08-26T17:13:59.688Z,42.41
2022-08-26T17:16:32.815Z,42.71
2022-08-26T17:19:06.950Z,42.84
2022-08-26T17:21:41.148Z,43.08
2022-08-26T17:24:14.395Z,43.37
2022-08-26T17:26:53.427Z,43.39
2022-08-26T17:29:31.255Z,43.77
2022-08-26T17:32:05.890Z,43.87
2022-08-26T17:34:39.739Z,44.07
2022-08-26T17:37:12.860Z,44.47
2022-08-26T17:39:45.971Z,44.68
2022-08-26T17:42:19.491Z,44.65
2022-08-26T17:44:53.021Z,44.68
2022-08-26T17:47:25.949Z,45.07
2022-08-26T17:49:59.250Z,45.26
2022-08-26T17:52:32.685Z,45.50
2022-08-26T17:55:06.340Z,45.86
2022-08-26T17:57:40.621Z,46.08
2022-08-26T18:00:20.407Z,46.26
2022-08-26T18:02:53.621Z,46.46
2022-08-26T18:05:28.027Z,46.65
2022-08-26T18:08:03.880Z,46.82
2022-08-26T18:10:38.577Z,47.29
2022-08-26T18:13:12.921Z,47.20
2022-08-26T18:15:49.348Z,47.30
2022-08-26T18:18:23.512Z,47.67
2022-08-26T18:21:01.628Z,47.77
2022-08-26T18:23:36.240Z,47.89
2022-08-26T18:26:11.393Z,48.31
2022-08-26T18:28:46.603Z,48.55
2022-08-26T18:31:20.074Z,48.62
2022-08-26T18:33:53.634Z,48.95
2022-08-26T18:36:32.149Z,48.65
2022-08-26T18:39:06.386Z,48.15
2022-08-26T18:41:45.451Z,47.93
2022-08-26T18:44:21.932Z,47.96
2022-08-26T18:46:56.035Z,48.14
2022-08-26T18:49:29.782Z,48.12
2022-08-26T18:52:02.875Z,47.94
2022-08-26T18:54:36.147Z,48.05
2022-08-26T18:57:09.174Z,48.20
2022-08-26T18:59:42.417Z,48.17
2022-08-26T19:02:16.097Z,48.26
2022-08-26T19:04:49.590Z,48.58
2022-08-26T19:07:23.956Z,48.83
2022-08-26T19:09:56.820Z,48.90
2022-08-26T19:12:30.196Z,48.84
2022-08-26T19:15:07.390Z,49.10
2022-08-26T19:17:40.763Z,49.83
2022-08-26T19:20:14.331Z,49.89
2022-08-26T19:22:47.786Z,49.51
2022-08-26T19:25:21.249Z,49.62
2022-08-26T19:27:54.494Z,49.96
2022-08-26T19:30:28.483Z,49.72
2022-08-26T19:33:05.971Z,49.31
2022-08-26T19:35:41.302Z,49.82
2022-08-26T19:38:15.960Z,49.84
2022-08-26T19:40:49.574Z,50.13
2022-08-26T19:43:23.309Z,50.27
2022-08-26T19:45:57.948Z,50.19
2022-08-26T19:48:32.435Z,50.64
2022-08-26T19:51:07.076Z,50.89
2022-08-26T19:53:41.402Z,51.31
2022-08-26T19:56:16.046Z,51.30
2022-08-26T19:58:49.446Z,51.27
2022-08-26T20:01:23.824Z,51.06
2022-08-26T20:03:57.781Z,51.22
2022-08-26T20:06:31.597Z,51.15
2022-08-26T20:09:05.423Z,51.11
2022-08-26T20:11:39.759Z,51.02
2022-08-26T20:14:13.807Z,50.98
2022-08-26T20:16:48.290Z,51.08
2022-08-26T20:19:40.624Z,51.34
2022-08-26T20:22:14.921Z,51.40
2022-08-26T20:24:50.125Z,51.46
2022-08-26T20:27:37.852Z,51.65
2022-08-26T20:30:14.188Z,51.76
2022-08-26T20:32:49.007Z,51.75
2022-08-26T20:35:24.464Z,51.95
2022-08-26T20:37:58.696Z,51.90
2022-08-26T20:40:34.039Z,52.07
2022-08-26T20:43:08.069Z,52.25
2022-08-26T20:45:42.286Z,52.18
2022-08-26T20:48:15.954Z,52.54
2022-08-26T20:50:49.425Z,52.74
2022-08-26T20:53:22.754Z,52.90
2022-08-26T20:56:04.315Z,52.89
2022-08-26T20:58:38.469Z,52.92
2022-08-26T21:01:18.806Z,53.22
2022-08-26T21:03:55.332Z,53.39
2022-08-26T21:06:28.751Z,53.18
2022-08-26T21:09:03.461Z,53.38
2022-08-26T21:11:39.373Z,53.65
2022-08-26T21:14:16.687Z,53.71
2022-08-26T21:16:51.447Z,53.70
2022-08-26T21:19:25.120Z,53.62
2022-08-26T21:22:00.262Z,53.86
2022-08-26T21:24:33.928Z,54.40
2022-08-26T21:27:07.410Z,54.79
2022-08-26T21:29:40.700Z,54.33
2022-08-26T21:32:15.762Z,54.42
2022-08-26T21:34:49.131Z,54.53
2022-08-26T21:37:22.209Z,54.41
2022-08-26T21:39:58.957Z,54.89
2022-08-26T21:42:34.966Z,54.65
2022-08-26T21:45:09.341Z,54.81
2022-08-26T21:47:42.887Z,54.88
2022-08-26T21:50:16.222Z,54.92
2022-08-26T21:52:49.739Z,55.02
2022-08-26T21:55:23.472Z,54.92
2022-08-26T21:57:56.742Z,55.08
2022-08-26T22:00:29.824Z,55.30
2022-08-26T22:03:03.014Z,55.13
2022-08-26T22:05:36.154Z,55.40
2022-08-26T22:08:09.156Z,55.47
2022-08-26T22:10:45.597Z,55.73
2022-08-26T22:13:19.390Z,55.95
2022-08-26T22:15:52.863Z,55.91
2022-08-26T22:18:30.037Z,56.14
2022-08-26T22:21:06.119Z,56.41
2022-08-26T22:23:41.001Z,56.64
2022-08-26T22:26:15.719Z,56.98
2022-08-26T22:29:02.890Z,57.22
2022-08-26T22:31:38.727Z,57.25
2022-08-26T22:34:16.170Z,57.55
2022-08-26T22:36:50.704Z,57.65
2022-08-26T22:39:27.183Z,57.86
2022-08-26T22:42:00.888Z,58.11
2022-08-26T22:44:37.618Z,58.25
2022-08-26T22:47:11.383Z,58.34
2022-08-26T22:49:47.227Z,58.28
2022-08-26T22:52:20.852Z,58.53
2022-08-26T22:54:54.463Z,58.62
2022-08-26T22:57:28.633Z,58.88
2022-08-26T23:00:03.153Z,58.93
2022-08-26T23:02:37.344Z,58.96
2022-08-26T23:05:12.565Z,59.10
2022-08-26T23:07:46.740Z,59.14
2022-08-26T23:10:20.793Z,59.38
2022-08-26T23:12:55.983Z,59.42
2022-08-26T23:15:30.383Z,59.59
2022-08-26T23:18:05.069Z,59.64
2022-08-26T23:20:39.464Z,59.65
2022-08-26T23:23:13.523Z,59.72
2022-08-26T23:25:48.586Z,59.73
2022-08-26T23:28:23.123Z,59.60
2022-08-26T23:30:58.083Z,59.61
2022-08-26T23:33:53.122Z,59.73
2022-08-26T23:36:26.545Z,59.84
2022-08-26T23:38:59.586Z,59.90
2022-08-26T23:41:32.915Z,59.96
2022-08-26T23:44:06.648Z,59.97
2022-08-26T23:46:39.723Z,59.96
2022-08-26T23:49:13.020Z,59.88
2022-08-26T23:52:05.124Z,59.84
2022-08-26T23:54:37.120Z,59.95
2022-08-26T23:57:09.912Z,59.73
2022-08-26T23:59:43.748Z,59.56
